Time;durP1;ratioP1;P1;durP2;ratioP2;P2;SDS_P1;SDS_P2;PMS_P1;PMS_P2;Temp;Humidity;BMP_temperature;BMP_pressure;BME280_temperature;BME280_humidity;BME280_pressure;Samples;Min_cycle;Max_cycle;Signal;HPM_P1;HPM_P2
2024/01/07 00:01:09;;;;;;;14.35;13.05;;;;;;;8.03;73.15;97390.44;4991273;28;20309;-75
2024/01/07 00:03:35;;;;;;;13.73;12.48;;;;;;;8.08;73.15;97383.41;4989049;28;20207;-75
2024/01/07 00:06:04;;;;;;;13.35;11.95;;;;;;;8.23;72.54;97390.47;4991243;28;20213;-75
2024/01/07 00:08:31;;;;;;;13.32;12.13;;;;;;;8.21;72.69;97387.97;4984042;28;20203;-75
2024/01/07 00:10:57;;;;;;;14.15;12.75;;;;;;;8.13;73.00;97384.63;4989431;28;20202;-75
2024/01/07 00:13:24;;;;;;;14.45;13.15;;;;;;;8.12;72.68;97393.78;4990221;28;20299;-75
2024/01/07 00:15:52;;;;;;;14.40;13.00;;;;;;;7.81;73.87;97392.41;4991366;28;20205;-75
2024/01/07 00:18:18;;;;;;;13.23;12.02;;;;;;;7.89;73.69;97389.53;4991081;28;20580;-75
2024/01/07 00:20:46;;;;;;;12.23;11.02;;;;;;;7.91;73.57;97390.16;4989077;28;20219;-75
2024/01/07 00:23:14;;;;;;;12.95;11.82;;;;;;;7.91;73.55;97398.25;4989453;28;20759;-75
2024/01/07 00:25:40;;;;;;;12.63;11.50;;;;;;;8.03;73.39;97390.44;4990305;28;20560;-75
2024/01/07 00:28:07;;;;;;;13.10;11.80;;;;;;;8.01;73.32;97390.63;4991120;28;20658;-75
2024/01/07 00:30:33;;;;;;;13.82;12.48;;;;;;;7.77;74.04;97395.72;5005674;28;20303;-75
2024/01/07 00:33:00;;;;;;;14.27;12.98;;;;;;;7.21;76.10;97390.41;4988675;28;20271;-74
2024/01/07 00:35:26;;;;;;;12.30;11.15;;;;;;;7.98;73.85;97388.34;4986245;28;20215;-74
2024/01/07 00:37:56;;;;;;;12.27;11.10;;;;;;;7.94;73.49;97395.16;4974120;28;20207;-74
2024/01/07 00:40:24;;;;;;;14.38;12.98;;;;;;;7.66;74.51;97399.81;4989365;28;20580;-74
2024/01/07 00:42:52;;;;;;;13.77;12.50;;;;;;;8.19;72.71;97390.06;4987710;28;20213;-75
2024/01/07 00:45:18;;;;;;;13.05;11.85;;;;;;;7.99;73.01;97389.16;5021332;28;20203;-75
2024/01/07 00:47:45;;;;;;;13.70;12.40;;;;;;;7.81;74.25;97388.88;4990344;28;20214;-75
2024/01/07 00:50:11;;;;;;;14.35;13.00;;;;;;;7.99;73.37;97390.00;4990982;28;20297;-75
2024/01/07 00:52:38;;;;;;;12.80;11.70;;;;;;;8.05;72.87;97394.59;4988502;28;20249;-75
2024/01/07 00:55:06;;;;;;;12.45;11.35;;;;;;;7.88;73.65;97392.44;4990155;28;20298;-75
2024/01/07 00:57:36;;;;;;;13.52;12.15;;;;;;;7.98;73.49;97388.34;4982849;28;20243;-75
2024/01/07 01:00:06;;;;;;;12.40;11.20;;;;;;;7.93;73.92;97401.56;4986691;28;20211;-75
2024/01/07 01:02:35;;;;;;;12.88;11.57;;;;;;;7.85;73.85;97396.34;4989669;28;20230;-75
2024/01/07 01:05:02;;;;;;;11.32;10.23;;;;;;;7.72;74.60;97399.84;4988617;28;20231;-75
2024/01/07 01:07:29;;;;;;;13.45;12.18;;;;;;;7.78;74.26;97402.78;4988551;28;20346;-75
2024/01/07 01:09:55;;;;;;;12.95;11.73;;;;;;;7.79;74.56;97399.88;4990808;28;20290;-75
2024/01/07 01:12:23;;;;;;;14.60;13.10;;;;;;;7.61;75.11;97407.63;4988507;28;20306;-75
2024/01/07 01:14:51;;;;;;;14.68;13.23;;;;;;;7.80;74.34;97406.09;4989608;28;20290;-75
2024/01/07 01:17:18;;;;;;;15.07;13.57;;;;;;;7.82;74.49;97409.38;4987407;28;20772;-75
2024/01/07 01:19:44;;;;;;;12.88;11.52;;;;;;;7.83;74.23;97411.88;4989448;28;20290;-75
2024/01/07 01:22:11;;;;;;;15.35;13.82;;;;;;;7.72;74.51;97410.63;4990805;28;20255;-75
2024/01/07 01:24:37;;;;;;;13.57;12.27;;;;;;;8.09;73.36;97409.31;4988951;28;20199;-74
2024/01/07 01:27:04;;;;;;;15.63;14.13;;;;;;;8.20;73.00;97412.44;4988327;28;20207;-75
2024/01/07 01:29:31;;;;;;;13.57;12.20;;;;;;;8.35;72.22;97410.47;4994588;28;20302;-75
2024/01/07 01:31:59;;;;;;;15.55;13.38;;;;;;;8.11;73.05;97414.50;4987171;28;20295;-75
2024/01/07 01:34:26;;;;;;;14.25;12.85;;;;;;;8.12;73.11;97415.34;4988412;28;20200;-75
2024/01/07 01:36:53;;;;;;;14.95;13.48;;;;;;;8.17;73.02;97412.84;4986860;28;20293;-75
2024/01/07 01:39:19;;;;;;;14.55;13.25;;;;;;;8.19;72.82;97421.56;4987818;28;20229;-75
2024/01/07 01:41:46;;;;;;;14.65;13.15;;;;;;;8.00;73.51;97417.78;4985454;28;20845;-75
2024/01/07 01:44:12;;;;;;;16.23;14.25;;;;;;;8.14;73.19;97419.47;4988363;28;21130;-75
2024/01/07 01:46:39;;;;;;;13.85;12.48;;;;;;;8.24;72.64;97421.78;4996912;28;20257;-74
2024/01/07 01:49:07;;;;;;;14.10;12.80;;;;;;;8.04;73.38;97419.88;4990066;28;20669;-75
2024/01/07 01:51:34;;;;;;;14.40;13.00;;;;;;;8.18;72.90;97441.47;4989512;28;20274;-75
2024/01/07 01:54:01;;;;;;;16.05;14.55;;;;;;;7.84;74.04;97424.31;4986112;28;20686;-74
2024/01/07 01:56:28;;;;;;;15.77;13.60;;;;;;;7.87;73.99;97423.94;4988560;28;20258;-73
2024/01/07 01:58:55;;;;;;;16.50;14.80;;;;;;;7.77;74.35;97428.03;4987902;28;20755;-75
2024/01/07 02:01:21;;;;;;;16.55;14.85;;;;;;;7.89;74.31;97418.34;4985322;28;20230;-74
2024/01/07 02:03:48;;;;;;;16.08;14.45;;;;;;;8.22;72.59;97422.00;5018676;28;20693;-75
2024/01/07 02:06:17;;;;;;;15.88;14.38;;;;;;;8.05;73.31;97421.53;4989530;28;20253;-73
2024/01/07 02:08:43;;;;;;;19.67;15.57;;;;;;;7.54;75.13;97426.44;4988838;28;20306;-74
2024/01/07 02:11:17;;;;;;;15.73;14.13;;;;;;;7.64;74.99;97421.53;4988752;28;20239;-73
2024/01/07 02:13:44;;;;;;;15.35;13.75;;;;;;;7.67;75.14;97428.41;4985667;28;20218;-74
2024/01/07 02:16:11;;;;;;;17.05;15.30;;;;;;;7.39;76.09;97434.66;4984212;28;20370;-73
2024/01/07 02:18:40;;;;;;;16.33;14.68;;;;;;;7.84;74.58;97429.72;4981370;28;20231;-74
2024/01/07 02:21:07;;;;;;;19.42;16.17;;;;;;;7.36;76.14;97426.97;5002585;28;20310;-74
2024/01/07 02:23:35;;;;;;;17.00;15.20;;;;;;;7.71;74.92;97430.50;4986348;28;20281;-74
2024/01/07 02:26:03;;;;;;;16.13;14.52;;;;;;;7.69;74.92;97431.72;4987263;28;20208;-74
2024/01/07 02:28:30;;;;;;;16.25;13.98;;;;;;;7.65;75.19;97430.44;4988935;28;20200;-74
2024/01/07 02:30:57;;;;;;;16.45;14.77;;;;;;;7.79;74.71;97426.81;4988019;28;20214;-75
2024/01/07 02:33:23;;;;;;;16.58;14.98;;;;;;;7.90;73.94;97434.31;4985626;28;20199;-74
2024/01/07 02:35:50;;;;;;;16.80;15.07;;;;;;;7.85;74.24;97426.00;4984574;28;20239;-74
2024/01/07 02:38:17;;;;;;;15.75;13.55;;;;;;;7.99;73.83;97422.34;4994275;28;20261;-74
2024/01/07 02:40:43;;;;;;;14.98;13.68;;;;;;;7.98;73.56;97436.84;4986661;28;20600;-74
2024/01/07 02:43:11;;;;;;;14.52;13.02;;;;;;;8.06;73.21;97425.06;4986869;28;20712;-74
2024/01/07 02:45:37;;;;;;;14.77;13.15;;;;;;;8.19;72.61;97426.97;4987003;28;20199;-74
2024/01/07 02:48:05;;;;;;;14.00;12.65;;;;;;;8.18;72.58;97419.91;4987230;28;20211;-74
2024/01/07 02:50:32;;;;;;;15.13;13.52;;;;;;;8.18;72.32;97423.44;4988171;28;20210;-75
2024/01/07 02:52:58;;;;;;;13.20;11.90;;;;;;;8.07;72.88;97418.63;4986515;28;20278;-74
2024/01/07 02:55:25;;;;;;;13.02;11.82;;;;;;;7.93;73.18;97428.53;4984600;28;20199;-75
2024/01/07 02:57:51;;;;;;;12.73;11.52;;;;;;;7.94;73.07;97422.09;4986286;28;20790;-74
2024/01/07 03:00:20;;;;;;;13.43;12.13;;;;;;;7.80;73.63;97422.25;4987615;28;20203;-75
2024/01/07 03:02:46;;;;;;;14.15;12.85;;;;;;;7.39;75.79;97425.75;4988925;28;20227;-75
2024/01/07 03:05:13;;;;;;;13.60;12.25;;;;;;;7.27;76.04;97428.13;4985659;28;20219;-75
2024/01/07 03:07:39;;;;;;;13.18;11.88;;;;;;;7.49;74.84;97433.44;4986402;28;20442;-75
2024/01/07 03:10:07;;;;;;;12.45;11.30;;;;;;;7.54;74.49;97433.69;4987428;28;20867;-75
2024/01/07 03:12:33;;;;;;;12.93;11.63;;;;;;;7.66;73.98;97432.94;5000025;28;20206;-75
2024/01/07 03:15:00;;;;;;;14.55;13.15;;;;;;;7.68;74.27;97436.28;5000690;28;20613;-75
2024/01/07 03:17:28;;;;;;;14.95;13.52;;;;;;;7.60;74.10;97432.91;4985407;28;20299;-75
2024/01/07 03:19:55;;;;;;;14.10;12.65;;;;;;;7.89;73.11;97442.59;4979659;28;20242;-75
2024/01/07 03:22:21;;;;;;;14.10;12.60;;;;;;;7.84;73.17;97445.88;4986182;28;20314;-75
2024/01/07 03:24:48;;;;;;;14.20;12.75;;;;;;;7.77;73.53;97445.03;4986751;28;20664;-75
2024/01/07 03:27:14;;;;;;;14.68;13.25;;;;;;;7.87;73.28;97441.94;4988603;28;20199;-74
2024/01/07 03:29:41;;;;;;;12.95;11.68;;;;;;;7.88;72.67;97444.44;4996935;28;20290;-74
2024/01/07 03:32:08;;;;;;;13.75;12.10;;;;;;;7.94;72.95;97446.34;4987925;28;20207;-75
2024/01/07 03:34:36;;;;;;;14.45;12.95;;;;;;;7.93;72.72;97455.47;4981963;28;20211;-73
2024/01/07 03:37:02;;;;;;;14.88;13.45;;;;;;;7.98;72.28;97455.69;4986159;28;20275;-73
2024/01/07 03:39:29;;;;;;;16.02;14.52;;;;;;;7.90;72.61;97455.84;4987218;28;20277;-72
2024/01/07 03:41:55;;;;;;;16.27;14.68;;;;;;;7.50;73.78;97454.78;4986733;28;20229;-73
2024/01/07 03:44:22;;;;;;;14.40;13.00;;;;;;;7.45;74.33;97451.88;4986232;28;20984;-73
2024/01/07 03:46:48;;;;;;;14.45;12.95;;;;;;;7.88;72.74;97451.69;4987355;28;20277;-72
2024/01/07 03:49:15;;;;;;;14.77;13.25;;;;;;;7.50;73.79;97452.09;4987152;28;20682;-72
2024/01/07 03:51:43;;;;;;;15.85;14.25;;;;;;;7.34;74.17;97439.78;4988440;28;20242;-72
2024/01/07 03:54:10;;;;;;;15.60;14.05;;;;;;;7.19;74.74;97444.44;4994087;28;20210;-73
2024/01/07 03:56:36;;;;;;;14.00;12.50;;;;;;;7.20;74.92;97448.78;4986003;28;20210;-72
2024/01/07 03:59:03;;;;;;;14.73;13.23;;;;;;;6.63;77.12;97447.06;4991894;28;20235;-72
2024/01/07 04:01:29;;;;;;;15.05;13.32;;;;;;;6.76;76.70;97453.59;4993014;28;20233;-73
2024/01/07 04:03:56;;;;;;;15.52;13.80;;;;;;;6.60;77.27;97457.34;4993394;28;20196;-74
2024/01/07 04:06:22;;;;;;;14.65;13.05;;;;;;;7.01;76.04;97450.31;4999874;28;20211;-74
2024/01/07 04:08:50;;;;;;;16.00;14.30;;;;;;;6.98;75.54;97461.44;5000585;28;20315;-75
2024/01/07 04:11:17;;;;;;;14.90;12.75;;;;;;;6.95;75.69;97464.53;5001583;28;20294;-74
2024/01/07 04:13:44;;;;;;;13.32;12.02;;;;;;;7.32;74.59;97455.31;4990656;28;20210;-75
2024/01/07 04:16:17;;;;;;;13.32;11.93;;;;;;;7.18;74.54;97466.16;4994588;28;20677;-74
2024/01/07 04:18:44;;;;;;;14.63;13.10;;;;;;;7.53;73.38;97458.94;4991201;28;20203;-74
2024/01/07 04:21:10;;;;;;;15.13;12.80;;;;;;;7.66;72.73;97464.44;4992865;28;20301;-74
2024/01/07 04:23:37;;;;;;;14.23;12.27;;;;;;;7.83;71.78;97468.47;4989862;28;20215;-74
2024/01/07 04:26:05;;;;;;;13.73;12.32;;;;;;;7.60;72.18;97466.06;5000224;28;20207;-75
2024/01/07 04:28:32;;;;;;;11.85;10.60;;;;;;;7.60;72.16;97476.00;4990562;28;20195;-75
2024/01/07 04:30:58;;;;;;;13.18;11.80;;;;;;;7.50;72.52;97472.81;4995356;28;20285;-74
2024/01/07 04:33:25;;;;;;;15.00;12.25;;;;;;;7.36;72.85;97471.91;4989466;28;20242;-75
2024/01/07 04:35:51;;;;;;;13.27;11.40;;;;;;;7.08;73.96;97477.28;4989251;28;20227;-75
2024/01/07 04:38:18;;;;;;;12.90;11.60;;;;;;;7.15;73.76;97480.81;4990151;28;20231;-75
2024/01/07 04:40:44;;;;;;;13.57;12.20;;;;;;;6.56;75.40;97470.34;4989271;28;20707;-75
2024/01/07 04:43:12;;;;;;;13.80;12.23;;;;;;;6.82;75.27;97482.41;4988923;28;20258;-74
2024/01/07 04:45:39;;;;;;;11.63;10.43;;;;;;;6.90;74.90;97480.41;4989164;28;20290;-74
2024/01/07 04:48:06;;;;;;;12.00;10.80;;;;;;;6.96;75.00;97479.63;4988344;28;20207;-75
2024/01/07 04:50:33;;;;;;;12.85;11.55;;;;;;;7.14;74.30;97487.25;4989747;28;20703;-74
2024/01/07 04:52:59;;;;;;;12.50;11.20;;;;;;;7.22;73.96;97495.16;4972747;28;20919;-75
2024/01/07 04:55:26;;;;;;;12.63;11.32;;;;;;;6.72;75.70;97494.31;4989745;28;20206;-74
2024/01/07 04:57:52;;;;;;;10.93;9.82;;;;;;;6.97;74.80;97488.53;4988093;28;20752;-74
2024/01/07 05:00:20;;;;;;;12.05;10.82;;;;;;;6.94;75.04;97491.63;4990534;28;20687;-75
2024/01/07 05:02:49;;;;;;;12.65;11.35;;;;;;;6.67;76.19;97496.75;4989322;28;20681;-75
2024/01/07 05:05:16;;;;;;;12.45;11.20;;;;;;;6.81;75.79;97491.50;4997607;28;20232;-74
2024/01/07 05:07:42;;;;;;;11.05;9.95;;;;;;;6.89;75.35;97489.50;4991818;28;20290;-74
2024/01/07 05:10:09;;;;;;;11.43;9.85;;;;;;;7.00;74.95;97491.69;4996968;28;20199;-75
2024/01/07 05:12:36;;;;;;;11.15;10.02;;;;;;;6.82;75.76;97495.88;4990299;28;20206;-74
2024/01/07 05:15:03;;;;;;;12.40;10.70;;;;;;;6.74;75.83;97492.28;4984764;28;20203;-74
2024/01/07 05:17:31;;;;;;;10.50;9.35;;;;;;;6.97;75.43;97497.44;4998503;28;20211;-75
2024/01/07 05:19:58;;;;;;;11.75;10.65;;;;;;;6.47;77.07;97495.69;4988291;28;20214;-74
2024/01/07 05:22:24;;;;;;;12.07;10.82;;;;;;;6.73;76.44;97500.53;4989820;28;20310;-75
2024/01/07 05:24:51;;;;;;;11.25;10.10;;;;;;;6.87;75.91;97505.00;4986648;28;20207;-74
2024/01/07 05:27:17;;;;;;;11.25;10.15;;;;;;;6.78;75.63;97508.03;4990224;28;20210;-75
2024/01/07 05:29:46;;;;;;;10.25;9.25;;;;;;;6.74;76.26;97508.41;4987726;28;20703;-74
2024/01/07 05:32:13;;;;;;;11.77;10.38;;;;;;;6.50;77.03;97506.03;4996843;28;20218;-75
2024/01/07 05:34:41;;;;;;;12.05;10.77;;;;;;;6.84;75.98;97512.59;4988994;28;20722;-74
2024/01/07 05:37:08;;;;;;;10.13;8.95;;;;;;;6.82;76.00;97514.69;4989903;28;20199;-74
2024/01/07 05:39:34;;;;;;;10.45;9.35;;;;;;;6.76;76.00;97515.44;4986707;28;20231;-75
2024/01/07 05:42:01;;;;;;;11.35;10.25;;;;;;;6.86;75.41;97511.41;4990027;28;20427;-75
2024/01/07 05:44:27;;;;;;;10.85;9.75;;;;;;;6.76;76.02;97515.44;4986518;28;20211;-75
2024/01/07 05:46:54;;;;;;;9.90;9.00;;;;;;;6.81;75.69;97515.72;4989359;28;20203;-74
2024/01/07 05:49:20;;;;;;;11.57;9.98;;;;;;;6.80;75.65;97519.41;4987731;28;20213;-74
2024/01/07 05:51:48;;;;;;;12.65;10.35;;;;;;;6.77;75.69;97517.13;4988707;28;20210;-75
2024/01/07 05:54:15;;;;;;;9.35;8.45;;;;;;;7.17;74.28;97529.06;4987835;28;20231;-75
2024/01/07 05:56:42;;;;;;;10.55;9.45;;;;;;;7.18;73.94;97525.34;4986461;28;20561;-74
2024/01/07 05:59:08;;;;;;;12.15;10.95;;;;;;;7.19;73.82;97535.91;4987064;28;20214;-74
2024/01/07 06:01:35;;;;;;;10.23;9.32;;;;;;;6.91;74.85;97529.66;4987794;28;20203;-75
2024/01/07 06:04:01;;;;;;;12.30;11.10;;;;;;;7.42;73.08;97538.41;4989400;28;20857;-74
2024/01/07 06:06:28;;;;;;;10.27;9.20;;;;;;;7.36;73.36;97533.81;4988417;28;20209;-75
2024/01/07 06:08:56;;;;;;;10.48;9.48;;;;;;;7.03;74.25;97541.59;5002286;28;20313;-75
2024/01/07 06:11:22;;;;;;;10.30;9.40;;;;;;;6.82;75.12;97547.78;4985243;28;20293;-74
2024/01/07 06:13:49;;;;;;;9.77;8.85;;;;;;;6.70;75.64;97536.69;4981324;28;20210;-74
2024/01/07 06:16:15;;;;;;;11.27;10.18;;;;;;;6.34;76.03;97542.06;4986736;28;20262;-74
2024/01/07 06:18:42;;;;;;;9.98;8.98;;;;;;;6.53;75.93;97556.75;4985632;28;20206;-74
2024/01/07 06:21:08;;;;;;;10.35;9.35;;;;;;;6.45;75.22;97548.81;4986586;28;20211;-75
2024/01/07 06:23:36;;;;;;;10.75;9.75;;;;;;;6.35;75.17;97557.16;4986305;28;20255;-74
2024/01/07 06:26:05;;;;;;;10.13;9.13;;;;;;;6.40;74.49;97551.22;4988645;28;20680;-74
2024/01/07 06:28:32;;;;;;;10.98;9.98;;;;;;;6.29;74.96;97560.59;4980790;28;20210;-75
2024/01/07 06:30:59;;;;;;;10.85;9.75;;;;;;;6.29;74.72;97559.75;4989212;28;20203;-75
2024/01/07 06:33:25;;;;;;;10.90;9.77;;;;;;;6.19;75.09;97561.88;4985330;28;20835;-74
2024/01/07 06:35:52;;;;;;;12.18;11.02;;;;;;;6.27;75.13;97564.47;4988340;28;20294;-74
2024/01/07 06:38:20;;;;;;;13.68;12.68;;;;;;;6.55;73.16;97562.78;4984476;28;20226;-75
2024/01/07 06:40:46;;;;;;;12.20;11.07;;;;;;;6.19;73.92;97567.25;4986201;28;20317;-75
2024/01/07 06:43:14;;;;;;;11.82;10.73;;;;;;;6.01;74.96;97573.84;4988172;28;20321;-74
2024/01/07 06:45:41;;;;;;;12.65;11.55;;;;;;;6.14;74.46;97575.06;4990258;28;20209;-74
2024/01/07 06:48:08;;;;;;;12.85;11.23;;;;;;;6.02;73.77;97580.91;4987217;28;20195;-74
2024/01/07 06:50:35;;;;;;;9.85;8.93;;;;;;;5.86;74.20;97585.56;4987805;28;20206;-74
2024/01/07 06:53:01;;;;;;;10.25;9.35;;;;;;;6.06;73.30;97584.03;4984091;28;20298;-74
2024/01/07 06:55:28;;;;;;;10.65;9.75;;;;;;;6.01;73.39;97591.81;4987849;28;20247;-74
2024/01/07 06:57:54;;;;;;;11.52;10.15;;;;;;;5.86;72.29;97590.94;4986536;28;20199;-74
2024/01/07 07:00:23;;;;;;;9.93;9.02;;;;;;;5.52;73.55;97594.13;4986953;28;20202;-74
2024/01/07 07:02:49;;;;;;;9.93;9.10;;;;;;;5.60;73.35;97605.63;4983754;28;20306;-74
2024/01/07 07:05:16;;;;;;;9.70;8.85;;;;;;;5.46;72.79;97602.91;4986851;28;20210;-74
2024/01/07 07:07:43;;;;;;;9.65;8.75;;;;;;;5.42;72.88;97612.31;4986967;28;20235;-74
2024/01/07 07:10:09;;;;;;;8.32;7.63;;;;;;;5.56;72.06;97604.31;4988981;28;20601;-74
2024/01/07 07:12:36;;;;;;;9.00;8.13;;;;;;;5.33;71.45;97617.75;4988022;28;20211;-74
2024/01/07 07:15:03;;;;;;;8.00;7.35;;;;;;;5.31;71.81;97616.25;4989485;28;20210;-74
2024/01/07 07:17:31;;;;;;;7.93;7.22;;;;;;;5.37;71.19;97626.28;4968704;28;20226;-74
2024/01/07 07:19:57;;;;;;;9.43;8.35;;;;;;;5.05;71.89;97628.19;4984006;28;20286;-74
2024/01/07 07:22:23;;;;;;;9.03;8.13;;;;;;;5.04;71.81;97633.72;4980738;28;20677;-74
2024/01/07 07:24:50;;;;;;;7.82;7.20;;;;;;;5.23;71.52;97633.25;4988263;28;20199;-74
2024/01/07 07:27:17;;;;;;;7.80;7.10;;;;;;;5.33;71.29;97636.53;4987875;28;20206;-74
2024/01/07 07:29:43;;;;;;;7.22;6.60;;;;;;;5.43;70.86;97635.47;4988844;28;20278;-75
2024/01/07 07:32:10;;;;;;;8.00;7.22;;;;;;;5.43;71.39;97632.78;4987656;28;20714;-74
2024/01/07 07:34:38;;;;;;;7.50;6.80;;;;;;;5.30;71.17;97644.09;4987733;28;20302;-74
2024/01/07 07:37:04;;;;;;;7.57;6.90;;;;;;;5.24;70.87;97642.97;4975308;28;20211;-73
2024/01/07 07:39:31;;;;;;;6.90;6.30;;;;;;;4.88;71.47;97663.28;4982034;28;20227;-76
2024/01/07 07:41:59;;;;;;;7.53;6.75;;;;;;;4.79;72.28;97657.16;4986822;28;20207;-73
2024/01/07 07:44:26;;;;;;;7.38;6.70;;;;;;;4.84;72.50;97667.38;4989625;28;20632;-76
2024/01/07 07:46:52;;;;;;;6.78;6.18;;;;;;;4.45;73.35;97667.38;4991715;28;20215;-76
2024/01/07 07:49:19;;;;;;;7.63;6.93;;;;;;;4.39;74.02;97674.25;4989703;28;20199;-76
2024/01/07 07:51:47;;;;;;;8.00;7.20;;;;;;;4.48;73.67;97673.22;4986541;28;20210;-76
2024/01/07 07:54:13;;;;;;;7.38;6.68;;;;;;;4.51;73.61;97698.81;4990619;28;20279;-78
2024/01/07 07:56:40;;;;;;;8.52;7.72;;;;;;;4.58;73.26;97676.50;4991968;28;20708;-74
2024/01/07 07:59:08;;;;;;;7.90;7.10;;;;;;;4.62;73.05;97675.16;4987820;28;20298;-74
2024/01/07 08:01:35;;;;;;;7.82;7.13;;;;;;;4.60;72.87;97679.84;4987392;28;20207;-74
2024/01/07 08:04:02;;;;;;;7.65;7.05;;;;;;;4.62;72.62;97685.88;4989688;28;20223;-75
2024/01/07 08:06:29;;;;;;;8.10;7.30;;;;;;;4.44;73.59;97685.28;4990187;28;20660;-74
2024/01/07 08:08:57;;;;;;;7.95;7.20;;;;;;;4.55;73.05;97689.44;4989797;28;20298;-75
2024/01/07 08:11:24;;;;;;;7.25;6.65;;;;;;;4.55;73.36;97690.25;4979177;28;20203;-75
2024/01/07 08:13:51;;;;;;;7.22;6.53;;;;;;;4.44;73.46;97692.47;4991686;28;20199;-75
2024/01/07 08:16:18;;;;;;;7.05;6.35;;;;;;;4.45;73.71;97689.63;4991086;28;20556;-75
2024/01/07 08:18:45;;;;;;;7.28;6.68;;;;;;;4.48;72.82;97691.97;4990070;28;20232;-74
2024/01/07 08:21:13;;;;;;;7.15;6.45;;;;;;;4.38;72.90;97702.03;5018419;28;20205;-75
2024/01/07 08:23:40;;;;;;;7.72;6.97;;;;;;;4.41;72.92;97701.69;4988450;28;20687;-74
2024/01/07 08:26:08;;;;;;;7.60;6.90;;;;;;;4.36;73.24;97725.47;4989531;28;20653;-75
2024/01/07 08:28:34;;;;;;;8.43;7.63;;;;;;;4.29;72.98;97709.25;5005341;28;20207;-74
2024/01/07 08:31:02;;;;;;;8.30;7.50;;;;;;;4.19;73.22;97705.94;4985458;28;20209;-75
2024/01/07 08:33:33;;;;;;;7.82;7.13;;;;;;;4.19;72.66;97711.28;4963196;28;20213;-78
2024/01/07 08:36:02;;;;;;;6.18;5.68;;;;;;;4.17;72.90;97702.59;4990894;28;20682;-74
2024/01/07 08:38:29;;;;;;;5.80;5.30;;;;;;;4.37;71.65;97705.72;4989088;28;20213;-75
2024/01/07 08:40:55;;;;;;;4.88;4.47;;;;;;;4.20;70.57;97712.13;4982658;28;20207;-74
2024/01/07 08:43:24;;;;;;;5.20;4.78;;;;;;;4.34;70.43;97708.75;4983458;28;20692;-75
2024/01/07 08:45:50;;;;;;;5.35;4.95;;;;;;;4.40;70.25;97708.06;4985378;28;20286;-74
2024/01/07 08:48:17;;;;;;;5.18;4.43;;;;;;;4.45;69.95;97712.91;4989330;28;20286;-74
2024/01/07 08:50:44;;;;;;;4.47;4.07;;;;;;;4.30;70.08;97712.75;4988340;28;20192;-74
2024/01/07 08:53:11;;;;;;;6.15;5.65;;;;;;;4.28;70.41;97712.09;5002418;28;20777;-77
2024/01/07 08:55:38;;;;;;;5.60;5.10;;;;;;;4.37;70.05;97719.13;4987351;28;20199;-75
2024/01/07 08:58:06;;;;;;;5.72;5.22;;;;;;;4.31;70.15;97719.78;4986267;28;20211;-75
2024/01/07 09:00:34;;;;;;;6.82;6.22;;;;;;;4.26;70.85;97725.66;4984904;28;20225;-75
2024/01/07 09:03:01;;;;;;;6.30;5.70;;;;;;;4.38;70.89;97723.47;4988355;28;20637;-76
2024/01/07 09:05:28;;;;;;;7.80;6.80;;;;;;;4.42;70.75;97724.81;4986863;28;20210;-75
2024/01/07 09:07:54;;;;;;;7.38;6.68;;;;;;;4.47;70.73;97732.31;4982775;28;20205;-75
2024/01/07 09:10:21;;;;;;;6.47;5.88;;;;;;;4.53;70.56;97734.31;4987206;28;20209;-74
2024/01/07 09:12:49;;;;;;;6.50;5.90;;;;;;;4.66;70.27;97738.13;5003041;28;20546;-79
2024/01/07 09:15:19;;;;;;;7.10;6.43;;;;;;;4.51;70.35;97742.53;4988846;28;20289;-79
2024/01/07 09:17:48;;;;;;;5.97;5.47;;;;;;;4.60;69.90;97756.72;4989201;28;20207;-80
2024/01/07 09:20:15;;;;;;;6.72;6.13;;;;;;;4.55;70.08;97754.56;4995909;28;20687;-79
2024/01/07 09:22:43;;;;;;;6.85;5.82;;;;;;;4.56;69.82;97756.22;4984002;28;20556;-81
2024/01/07 09:25:10;;;;;;;7.13;6.43;;;;;;;4.59;69.49;97761.25;4988126;28;20231;-78
2024/01/07 09:27:37;;;;;;;6.20;5.65;;;;;;;4.61;69.51;97758.41;4987396;28;20199;-78
2024/01/07 09:30:05;;;;;;;7.10;6.40;;;;;;;4.55;69.99;97762.59;4985011;28;20203;-79
2024/01/07 09:32:32;;;;;;;6.55;5.95;;;;;;;4.60;69.75;97760.25;4980125;28;20231;-79
2024/01/07 09:35:00;;;;;;;5.97;5.40;;;;;;;4.38;69.85;97771.69;4983227;28;20191;-78
2024/01/07 09:37:27;;;;;;;6.95;6.35;;;;;;;4.53;69.83;97766.47;4983523;28;20204;-78
2024/01/07 09:39:53;;;;;;;5.90;5.40;;;;;;;4.52;69.69;97770.16;4974599;28;20211;-77
2024/01/07 09:42:20;;;;;;;9.50;8.60;;;;;;;4.68;68.98;97770.94;4978120;28;20254;-76
2024/01/07 09:44:47;;;;;;;6.25;5.65;;;;;;;4.37;69.96;97770.00;4986299;28;20294;-74
2024/01/07 09:47:15;;;;;;;5.97;5.47;;;;;;;4.45;69.67;97775.38;4986781;28;20198;-73
2024/01/07 09:49:43;;;;;;;6.00;5.40;;;;;;;4.54;69.75;97779.72;4987388;28;20195;-73
2024/01/07 09:52:12;;;;;;;6.85;6.25;;;;;;;4.56;68.85;97769.63;4982870;28;20258;-73
2024/01/07 09:54:40;;;;;;;6.57;5.93;;;;;;;4.41;69.25;97767.84;4986194;28;20209;-78
2024/01/07 09:57:07;;;;;;;6.70;6.10;;;;;;;4.29;69.53;97770.00;4982782;28;20245;-77
2024/01/07 09:59:35;;;;;;;6.40;5.80;;;;;;;4.22;70.12;97763.69;4987502;28;20222;-76
2024/01/07 10:02:02;;;;;;;7.05;6.35;;;;;;;4.33;69.83;97776.72;4984514;28;20311;-77
2024/01/07 10:04:29;;;;;;;7.32;6.72;;;;;;;4.42;70.20;97765.00;4983623;28;20311;-79
2024/01/07 10:06:55;;;;;;;5.97;5.47;;;;;;;4.37;68.95;97767.34;4984161;28;20214;-77
2024/01/07 10:09:36;;;;;;;6.15;5.55;;;;;;;4.45;67.99;97769.16;4986133;28;20195;-76
2024/01/07 10:12:03;;;;;;;5.60;5.10;;;;;;;4.20;67.72;97766.53;4976674;28;20215;-77
2024/01/07 10:14:31;;;;;;;5.10;4.70;;;;;;;4.32;67.12;97765.16;4976397;28;20961;-77
2024/01/07 10:16:58;;;;;;;5.90;5.30;;;;;;;4.19;66.89;97769.38;4967263;28;20294;-77
2024/01/07 10:19:25;;;;;;;5.55;5.05;;;;;;;3.94;67.14;97760.50;4982767;28;20250;-81
2024/01/07 10:22:02;;;;;;;6.55;5.70;;;;;;;4.21;66.54;97762.00;4996188;28;20680;-77
2024/01/07 10:24:37;;;;;;;5.63;5.13;;;;;;;4.00;67.00;97766.03;4993188;28;20219;-79
2024/01/07 10:27:04;;;;;;;6.00;5.50;;;;;;;4.30;65.98;97775.22;4980142;28;20187;-81
2024/01/07 10:29:31;;;;;;;5.50;5.00;;;;;;;4.33;66.01;97772.19;4985384;28;20203;-78
2024/01/07 10:31:58;;;;;;;6.15;5.65;;;;;;;4.42;65.80;97780.22;4982608;28;20301;-78
2024/01/07 10:34:25;;;;;;;5.93;5.38;;;;;;;4.24;65.91;97775.88;4983730;28;20203;-76
2024/01/07 10:36:52;;;;;;;6.43;5.82;;;;;;;4.11;66.59;97780.94;4980967;28;20202;-78
2024/01/07 10:39:20;;;;;;;6.00;5.50;;;;;;;4.14;66.04;97785.09;4971942;28;20207;-76
2024/01/07 10:41:48;;;;;;;5.32;4.82;;;;;;;4.06;65.75;97780.59;4979711;28;20207;-77
2024/01/07 10:44:15;;;;;;;5.80;5.30;;;;;;;3.88;66.12;97783.44;4979563;28;20980;-76
2024/01/07 10:46:44;;;;;;;5.78;5.20;;;;;;;4.01;65.85;97778.41;4965889;28;20194;-75
2024/01/07 10:49:19;;;;;;;5.72;5.28;;;;;;;3.89;66.72;97789.63;4983386;28;20218;-76
2024/01/07 10:51:46;;;;;;;9.50;7.57;;;;;;;4.00;66.33;97790.13;4987136;28;20195;-75
2024/01/07 10:54:14;;;;;;;7.93;6.65;;;;;;;4.15;66.29;97787.63;4965113;28;20190;-75
2024/01/07 10:56:49;;;;;;;11.20;9.70;;;;;;;4.32;65.90;97791.09;4980755;28;20215;-75
2024/01/07 10:59:16;;;;;;;8.98;7.80;;;;;;;4.21;65.74;97783.44;4986098;28;20209;-76
2024/01/07 11:01:43;;;;;;;7.80;7.03;;;;;;;4.20;66.07;97781.75;5004528;28;20266;-76
2024/01/07 11:04:15;;;;;;;9.70;8.70;;;;;;;4.10;66.56;97797.16;4989268;28;20241;-75
2024/01/07 11:06:47;;;;;;;8.27;7.50;;;;;;;4.20;66.53;97790.63;4991481;28;20195;-74
2024/01/07 11:09:20;;;;;;;8.23;7.43;;;;;;;4.29;65.64;97786.09;4990741;28;20207;-76
2024/01/07 11:11:49;;;;;;;8.00;7.30;;;;;;;3.99;67.08;97791.13;5005518;28;20250;-75
2024/01/07 11:14:36;;;;;;;6.75;6.15;;;;;;;3.87;67.31;97792.47;4999318;28;20230;-75
2024/01/07 11:17:04;;;;;;;6.68;6.05;;;;;;;3.88;67.75;97796.81;4969200;28;20637;-75
2024/01/07 11:19:31;;;;;;;6.68;6.07;;;;;;;3.79;67.56;97805.00;4986840;28;20683;-75
2024/01/07 11:22:22;;;;;;;5.70;5.22;;;;;;;3.48;67.92;97802.09;4985894;28;20203;-75
2024/01/07 11:24:49;;;;;;;6.55;5.90;;;;;;;3.64;67.50;97802.13;4976766;28;20219;-75
2024/01/07 11:27:18;;;;;;;6.50;5.90;;;;;;;3.62;67.67;97804.13;4979159;28;20214;-74
2024/01/07 11:29:44;;;;;;;7.30;6.60;;;;;;;3.57;67.94;97812.66;4985079;28;20286;-75
2024/01/07 11:32:13;;;;;;;5.63;5.13;;;;;;;3.58;67.77;97803.59;4976258;28;20554;-73